Airfield :
LOGIN :

Register | Disclaimer

   EN    FR    IT 

 










Legend :    VFR   Marginal VFR   IFR   Intensive IFR   Very Intensive IFR
Visi :
Ceiling :
>= 8 km
>= 3000ft
5 to 8 km
1000 to 3000 ft
1500m to 5 km
500 to 1000 ft
800 to 1500m
200 to 500 ft
< 800m
< 200 ft
Symbols :   Thunderstorms  Fog  Heavy snow  Heavy precipitations  Wind > 20 kt
SIGMETs :     Misc.  Thunderstorms  Icing  Turbulence  Mountain Waves  Volcanic Ashes






- Airport Elevation : 289 ft


LFYR - Romorantin Pruniers

CURRENT METAR :
  • 021230Z AUTO VRB03KT 9999 FEW015 BKN024 OVC031 06/04 Q1018 NOSIG

EXPIRED METARs :
  • 021200Z AUTO 04004KT 300V080 9999 -RA BKN015 BKN027 OVC036 06/04 Q1019 TEMPO OVC010
  • 021130Z AUTO 04003KT 330V080 9999 BKN016 OVC023 06/03 Q1019 TEMPO OVC010
  • 021100Z AUTO 04004KT 360V100 9999 BKN014 OVC020 06/03 Q1020 NOSIG
  • 021030Z AUTO 04003KT 300V080 9999 OVC011 06/04 Q1020 NOSIG
  • 021000Z AUTO 03004KT 300V070 9999 BKN011 OVC042 05/04 Q1020 NOSIG

TAF TAF LFYR
Valid from the 02 at 09:00 until the 03 at 09:00 UTC


020800Z 0209/0309 03007KT 9999 SCT014 OVC035
TEMPO 0209/0213 OVC010
BECMG 0217/0219 4000 -RA BKN013 OVC025
TEMPO 0222/0307 1500 RASN BKN004 OVC012
BECMG 0307/0309 9999 NSW



MET'MAP, your aeronautical weather chart ! - Copyright ORBIFLY December 2007 - Disclaimer

ORBIFLY MET'MAP TEAM :

Programming & Development : Alexandra Zaïnal
Original concept : Baudouin d'Aumeries
Technical & hardware support : Manuel Goepfert
Assistance : Marc-Olivier Méhu




SOURCES & CREDITS :

   NOAA